Time;durP1;ratioP1;P1;durP2;ratioP2;P2;SDS_P1;SDS_P2;PMS_P1;PMS_P2;Temp;Humidity;BMP_temperature;BMP_pressure;BME280_temperature;BME280_humidity;BME280_pressure;Samples;Min_cycle;Max_cycle;Signal;HPM_P1;HPM_P2
2022/03/16 00:00:03;;;;;;;2.67;1.20;;;22.20;99.90;;;;;;4919163;29;20264;-69
2022/03/16 00:02:30;;;;;;;3.40;1.27;;;22.30;99.90;;;;;;4918947;29;20272;-69
2022/03/16 00:04:58;;;;;;;3.47;0.80;;;22.60;99.90;;;;;;4918866;29;20280;-69
2022/03/16 00:07:26;;;;;;;3.53;1.00;;;22.70;99.90;;;;;;4918844;29;20197;-69
2022/03/16 00:09:54;;;;;;;2.20;0.73;;;22.70;99.90;;;;;;4919174;29;20222;-70
2022/03/16 00:12:21;;;;;;;3.67;1.40;;;22.90;99.90;;;;;;4918647;29;20181;-68
2022/03/16 00:14:53;;;;;;;3.50;1.20;;;23.10;99.90;;;;;;4900221;29;20189;-69
2022/03/16 00:17:20;;;;;;;7.53;1.20;;;23.10;99.90;;;;;;4900011;29;20250;-69
2022/03/16 00:19:48;;;;;;;4.73;1.17;;;23.20;99.90;;;;;;4900061;29;20542;-68
2022/03/16 00:22:16;;;;;;;4.00;0.90;;;23.20;99.90;;;;;;4913828;29;20185;-67
2022/03/16 00:24:44;;;;;;;3.03;0.90;;;23.60;99.90;;;;;;4919384;29;20189;-70
2022/03/16 00:27:12;;;;;;;3.07;1.00;;;23.60;99.90;;;;;;4918928;29;20181;-68
2022/03/16 00:29:39;;;;;;;5.10;1.20;;;23.60;99.90;;;;;;4920129;29;20219;-70
2022/03/16 00:32:07;;;;;;;3.07;0.90;;;23.80;99.90;;;;;;4921746;29;20182;-68
2022/03/16 00:34:35;;;;;;;3.70;1.00;;;24.00;99.90;;;;;;4921796;29;20221;-68
2022/03/16 00:37:03;;;;;;;5.93;1.33;;;24.10;99.90;;;;;;4920946;29;20201;-69
2022/03/16 00:39:30;;;;;;;1.30;0.87;;;24.30;99.90;;;;;;4919695;29;20239;-69
2022/03/16 00:41:58;;;;;;;3.67;1.10;;;24.30;99.90;;;;;;4920518;29;20213;-69
2022/03/16 00:44:28;;;;;;;4.60;1.13;;;24.80;99.90;;;;;;4919499;29;20764;-68
2022/03/16 00:46:56;;;;;;;4.27;1.03;;;25.00;99.90;;;;;;4918483;29;20190;-69
2022/03/16 00:49:23;;;;;;;2.73;0.77;;;25.70;99.90;;;;;;4918256;29;20708;-69
2022/03/16 00:51:51;;;;;;;5.30;1.20;;;25.50;99.90;;;;;;4915416;29;20249;-66
2022/03/16 00:54:19;;;;;;;4.13;1.20;;;25.50;99.90;;;;;;4918114;29;20189;-69
2022/03/16 00:56:47;;;;;;;2.40;0.63;;;25.70;99.90;;;;;;4918334;29;20177;-69
2022/03/16 00:59:14;;;;;;;3.20;1.03;;;25.60;99.90;;;;;;4918403;29;20639;-69
2022/03/16 01:01:42;;;;;;;4.17;1.23;;;25.60;99.90;;;;;;4917722;29;20237;-70
2022/03/16 01:04:10;;;;;;;6.03;1.37;;;26.10;99.90;;;;;;4918011;29;20216;-69
2022/03/16 01:06:37;;;;;;;4.33;1.20;;;26.00;99.90;;;;;;4918192;29;20169;-69
2022/03/16 01:09:05;;;;;;;3.63;0.97;;;26.00;99.90;;;;;;4918095;29;20260;-69
2022/03/16 01:11:33;;;;;;;5.13;1.07;;;26.10;99.90;;;;;;4917890;29;20203;-68
2022/03/16 01:14:01;;;;;;;3.57;1.00;;;26.40;99.90;;;;;;4917845;29;20181;-68
2022/03/16 01:16:29;;;;;;;4.63;1.03;;;26.90;99.90;;;;;;4917934;29;20669;-68
2022/03/16 01:18:56;;;;;;;4.67;1.33;;;26.50;99.90;;;;;;4917786;29;20188;-68
2022/03/16 01:21:25;;;;;;;7.50;1.40;;;25.80;99.90;;;;;;4917631;29;20242;-68
2022/03/16 01:23:53;;;;;;;3.87;0.87;;;25.90;99.90;;;;;;4917626;29;20276;-67
2022/03/16 01:26:20;;;;;;;5.33;1.77;;;25.50;99.90;;;;;;4917625;29;20189;-68
2022/03/16 01:28:48;;;;;;;4.70;1.30;;;25.20;99.90;;;;;;4917358;29;20272;-68
2022/03/16 01:31:18;;;;;;;6.40;1.60;;;24.90;99.90;;;;;;4917280;29;20190;-69
2022/03/16 01:33:46;;;;;;;8.97;1.43;;;24.60;99.90;;;;;;4917329;29;20189;-67
2022/03/16 01:36:14;;;;;;;3.57;1.17;;;24.50;99.90;;;;;;4917183;29;20204;-68
2022/03/16 01:38:41;;;;;;;4.30;1.70;;;24.00;99.90;;;;;;4917528;29;20714;-69
2022/03/16 01:41:09;;;;;;;6.33;1.50;;;24.20;99.90;;;;;;4917143;29;20264;-67
2022/03/16 01:43:37;;;;;;;6.07;1.70;;;24.20;99.90;;;;;;4917138;29;20619;-68
2022/03/16 01:46:05;;;;;;;8.43;1.70;;;24.30;99.90;;;;;;4917246;29;20181;-68
2022/03/16 01:48:33;;;;;;;4.20;1.60;;;24.30;99.90;;;;;;4917178;29;20217;-68
2022/03/16 01:51:01;;;;;;;5.63;1.67;;;24.00;99.90;;;;;;4916974;29;20619;-68
2022/03/16 01:53:28;;;;;;;9.00;2.33;;;23.90;99.90;;;;;;4917212;29;20267;-69
2022/03/16 01:55:56;;;;;;;6.63;1.50;;;23.50;99.90;;;;;;4917173;29;20185;-69
2022/03/16 01:58:24;;;;;;;3.60;2.43;;;23.20;99.90;;;;;;4916555;29;20217;-68
2022/03/16 02:00:51;;;;;;;5.10;1.40;;;23.10;99.90;;;;;;4916536;29;20282;-69
2022/03/16 02:03:19;;;;;;;8.83;1.93;;;23.00;99.90;;;;;;4916953;29;20269;-68
2022/03/16 02:05:47;;;;;;;8.07;2.00;;;22.80;99.90;;;;;;4916565;29;20332;-68
2022/03/16 02:08:15;;;;;;;5.77;1.50;;;22.60;99.90;;;;;;4916790;29;20269;-68
2022/03/16 02:10:43;;;;;;;4.13;1.50;;;22.60;99.90;;;;;;4916707;29;20185;-68
2022/03/16 02:13:11;;;;;;;7.73;2.03;;;22.60;99.90;;;;;;4916846;29;20543;-69
2022/03/16 02:15:39;;;;;;;4.57;1.30;;;22.60;99.90;;;;;;4916715;29;20191;-69
2022/03/16 02:18:07;;;;;;;6.27;1.50;;;22.60;99.90;;;;;;4916848;29;20208;-70
2022/03/16 02:20:36;;;;;;;5.93;1.20;;;22.70;99.90;;;;;;4916125;29;20719;-69
2022/03/16 02:23:06;;;;;;;3.73;1.57;;;22.80;99.90;;;;;;4916775;29;20676;-69
2022/03/16 02:25:47;;;;;;;4.97;1.40;;;22.90;99.90;;;;;;4916688;29;20182;-70
2022/03/16 02:28:15;;;;;;;4.77;1.40;;;22.80;99.90;;;;;;4916225;29;20225;-70
2022/03/16 02:30:43;;;;;;;7.40;1.50;;;22.60;99.90;;;;;;4916425;29;20192;-69
2022/03/16 02:33:11;;;;;;;8.50;1.80;;;22.50;99.90;;;;;;4916282;29;20216;-69
2022/03/16 02:35:38;;;;;;;4.43;1.50;;;22.10;99.90;;;;;;4915740;29;20182;-68
2022/03/16 02:38:06;;;;;;;5.10;1.50;;;22.10;99.90;;;;;;4916233;29;20211;-68
2022/03/16 02:40:35;;;;;;;8.07;2.13;;;22.20;99.90;;;;;;4916108;29;20703;-69
2022/03/16 02:43:02;;;;;;;3.47;1.20;;;22.50;99.90;;;;;;4916336;29;20198;-69
2022/03/16 02:45:30;;;;;;;5.83;1.40;;;22.50;99.90;;;;;;4913634;29;20189;-68
2022/03/16 02:47:58;;;;;;;3.63;1.30;;;22.50;99.90;;;;;;4915821;29;20311;-68
2022/03/16 02:50:26;;;;;;;7.97;1.57;;;22.60;99.90;;;;;;4915530;29;20199;-68
2022/03/16 02:52:54;;;;;;;4.70;1.27;;;22.70;99.90;;;;;;4915710;29;20279;-68
2022/03/16 02:55:22;;;;;;;5.67;1.70;;;22.90;99.90;;;;;;4915798;29;20188;-68
2022/03/16 02:57:50;;;;;;;3.73;1.57;;;23.00;99.90;;;;;;4914840;29;20193;-69
2022/03/16 03:00:18;;;;;;;3.03;1.30;;;23.10;99.90;;;;;;4915797;29;20189;-68
2022/03/16 03:02:46;;;;;;;3.30;1.30;;;23.20;99.90;;;;;;4916062;29;20244;-69
2022/03/16 03:05:14;;;;;;;8.87;1.50;;;23.10;99.90;;;;;;4916001;29;20263;-69
2022/03/16 03:07:41;;;;;;;5.83;1.33;;;22.80;99.90;;;;;;4916003;29;20185;-68
2022/03/16 03:10:09;;;;;;;7.83;1.10;;;22.60;99.90;;;;;;4915645;29;20201;-69
2022/03/16 03:12:37;;;;;;;5.43;1.67;;;22.50;99.90;;;;;;4915905;29;20188;-69
2022/03/16 03:15:10;;;;;;;3.07;1.10;;;22.50;99.90;;;;;;4915481;29;20188;-69
2022/03/16 03:17:38;;;;;;;7.43;1.50;;;22.60;99.90;;;;;;4915475;29;20190;-69
2022/03/16 03:20:07;;;;;;;4.03;1.00;;;22.90;99.90;;;;;;4899963;29;20219;-69
2022/03/16 03:22:34;;;;;;;2.97;0.90;;;23.00;99.90;;;;;;4914152;29;20205;-68
2022/03/16 03:25:03;;;;;;;3.33;0.90;;;23.00;99.90;;;;;;4915265;29;20181;-68
2022/03/16 03:27:32;;;;;;;1.67;1.00;;;23.40;99.90;;;;;;4912149;29;20189;-68
2022/03/16 03:30:00;;;;;;;3.83;1.27;;;24.10;99.90;;;;;;4915531;29;20199;-68
2022/03/16 03:32:28;;;;;;;6.27;1.47;;;24.10;99.90;;;;;;4914022;29;20670;-69
2022/03/16 03:34:55;;;;;;;4.00;0.93;;;24.40;99.90;;;;;;4914090;29;20189;-69
2022/03/16 03:37:30;;;;;;;7.03;1.20;;;24.60;99.90;;;;;;4915187;29;20288;-69
2022/03/16 03:39:58;;;;;;;5.37;1.73;;;24.60;99.90;;;;;;4915258;29;20193;-69
2022/03/16 03:42:26;;;;;;;2.40;1.00;;;24.80;99.90;;;;;;4915649;29;20213;-70
2022/03/16 03:44:54;;;;;;;3.60;1.10;;;25.00;99.90;;;;;;4915366;29;20192;-69
2022/03/16 03:47:22;;;;;;;4.87;1.60;;;25.00;99.90;;;;;;4914571;29;20177;-69
2022/03/16 03:49:49;;;;;;;5.10;1.20;;;25.00;99.90;;;;;;4914341;29;20245;-68
2022/03/16 03:52:17;;;;;;;4.47;1.30;;;24.50;99.90;;;;;;4913924;29;20184;-68
2022/03/16 03:54:45;;;;;;;3.07;1.13;;;24.30;99.90;;;;;;4913235;29;20200;-68
2022/03/16 03:57:12;;;;;;;3.23;1.10;;;24.10;99.90;;;;;;4914014;29;20181;-68
2022/03/16 03:59:40;;;;;;;3.90;1.60;;;24.30;99.90;;;;;;4912892;29;20364;-69
2022/03/16 04:02:08;;;;;;;3.33;1.37;;;24.30;99.90;;;;;;4914372;29;20233;-68
2022/03/16 04:04:35;;;;;;;5.43;1.90;;;24.40;99.90;;;;;;4915816;29;20212;-69
2022/03/16 04:07:03;;;;;;;5.00;1.60;;;24.60;99.90;;;;;;4914821;29;20188;-68
2022/03/16 04:09:31;;;;;;;4.37;1.60;;;24.60;99.90;;;;;;4915204;29;20220;-68
2022/03/16 04:11:59;;;;;;;6.17;1.37;;;25.00;99.90;;;;;;4914791;29;20185;-69
2022/03/16 04:14:26;;;;;;;5.27;1.53;;;25.10;99.90;;;;;;4914834;29;20679;-69
2022/03/16 04:16:54;;;;;;;6.33;2.00;;;25.20;99.90;;;;;;4913633;29;20537;-69
2022/03/16 04:19:22;;;;;;;6.03;1.60;;;25.30;99.90;;;;;;4915109;29;20236;-68
2022/03/16 04:21:49;;;;;;;3.80;1.40;;;25.80;99.90;;;;;;4915402;29;20189;-69
2022/03/16 04:24:17;;;;;;;10.17;1.67;;;26.10;99.90;;;;;;4915271;29;20711;-67
2022/03/16 04:26:45;;;;;;;6.87;1.40;;;26.00;99.90;;;;;;4917859;29;20200;-68
2022/03/16 04:29:12;;;;;;;5.63;1.73;;;25.90;99.90;;;;;;4918478;29;20220;-68
2022/03/16 04:31:40;;;;;;;5.07;1.40;;;26.10;99.90;;;;;;4918721;29;20184;-69
2022/03/16 04:34:08;;;;;;;6.93;1.77;;;26.20;99.90;;;;;;4917004;29;20567;-67
2022/03/16 04:36:37;;;;;;;3.93;1.30;;;26.20;99.90;;;;;;4918687;29;20185;-69
2022/03/16 04:39:06;;;;;;;7.03;1.97;;;26.30;99.90;;;;;;4918509;29;20205;-69
2022/03/16 04:41:33;;;;;;;6.87;1.60;;;26.20;99.90;;;;;;4918331;29;20240;-69
2022/03/16 04:44:04;;;;;;;6.47;1.70;;;25.90;99.90;;;;;;4918507;29;20727;-69
2022/03/16 04:46:32;;;;;;;8.33;2.23;;;25.70;99.90;;;;;;4918409;29;20199;-68
2022/03/16 04:48:59;;;;;;;6.00;1.57;;;25.30;99.90;;;;;;4916823;29;20225;-69
2022/03/16 04:51:27;;;;;;;9.37;1.90;;;24.90;99.90;;;;;;4917297;29;20730;-68
2022/03/16 04:53:55;;;;;;;6.27;1.30;;;24.80;99.90;;;;;;4917903;29;20178;-68
2022/03/16 04:56:23;;;;;;;8.93;1.50;;;24.60;99.90;;;;;;4917696;29;20187;-68
2022/03/16 04:58:50;;;;;;;8.23;1.57;;;24.40;99.90;;;;;;4918125;29;20208;-68
2022/03/16 05:01:18;;;;;;;6.27;1.57;;;24.30;99.90;;;;;;4918027;29;20229;-68
2022/03/16 05:03:49;;;;;;;6.17;1.53;;;24.10;99.90;;;;;;4917901;29;20256;-68
2022/03/16 05:06:17;;;;;;;8.60;1.77;;;24.20;99.90;;;;;;4917745;29;20276;-68
2022/03/16 05:08:45;;;;;;;9.70;2.20;;;24.20;99.90;;;;;;4916450;29;20303;-69
2022/03/16 05:11:13;;;;;;;7.23;1.73;;;24.40;99.90;;;;;;4915393;29;20181;-68
2022/03/16 05:13:41;;;;;;;7.87;1.67;;;24.30;99.90;;;;;;4917019;29;20276;-68
2022/03/16 05:16:09;;;;;;;7.80;1.80;;;24.20;99.90;;;;;;4916991;29;20190;-68
2022/03/16 05:18:40;;;;;;;4.07;1.50;;;24.00;99.90;;;;;;4916606;29;20189;-69
2022/03/16 05:21:08;;;;;;;8.33;2.03;;;23.80;99.90;;;;;;4917073;29;20184;-68
2022/03/16 05:23:36;;;;;;;8.97;1.93;;;23.70;99.90;;;;;;4917232;29;20193;-68
2022/03/16 05:26:05;;;;;;;7.33;1.93;;;23.60;99.90;;;;;;4917105;29;20734;-69
2022/03/16 05:28:33;;;;;;;6.40;1.50;;;23.60;99.90;;;;;;4898532;29;20655;-70
2022/03/16 05:31:01;;;;;;;9.27;1.90;;;23.50;99.90;;;;;;4916206;29;20221;-69
2022/03/16 05:33:28;;;;;;;13.17;2.10;;;23.30;99.90;;;;;;4916657;29;20192;-69
2022/03/16 05:35:56;;;;;;;3.33;1.30;;;23.10;99.90;;;;;;4916986;29;20342;-69
2022/03/16 05:38:24;;;;;;;13.43;2.37;;;22.80;99.90;;;;;;4917373;29;20562;-70
2022/03/16 05:40:51;;;;;;;8.80;1.70;;;22.90;99.90;;;;;;4917413;29;20551;-71
2022/03/16 05:43:21;;;;;;;6.53;1.43;;;23.00;99.90;;;;;;4917261;29;20178;-71
2022/03/16 05:45:50;;;;;;;14.63;1.63;;;22.80;99.90;;;;;;4917090;29;20227;-71
2022/03/16 05:48:18;;;;;;;8.63;1.77;;;22.80;99.90;;;;;;4917353;29;20216;-70
2022/03/16 05:50:46;;;;;;;9.80;1.83;;;22.70;99.90;;;;;;4917020;29;20198;-70
2022/03/16 05:53:16;;;;;;;9.90;2.00;;;22.70;99.90;;;;;;4917013;29;20215;-70
2022/03/16 05:55:44;;;;;;;4.80;1.57;;;22.80;99.90;;;;;;4917030;29;20247;-70
2022/03/16 05:58:12;;;;;;;7.00;1.73;;;22.70;99.90;;;;;;4916781;29;20194;-70
2022/03/16 06:00:40;;;;;;;5.73;1.40;;;22.70;99.90;;;;;;4916986;29;20184;-70
2022/03/16 06:03:08;;;;;;;8.27;1.57;;;22.70;99.90;;;;;;4916991;29;20284;-72
2022/03/16 06:05:36;;;;;;;7.07;1.33;;;22.70;99.90;;;;;;4917020;29;20236;-70
2022/03/16 06:08:04;;;;;;;5.13;1.70;;;22.60;99.90;;;;;;4916881;29;20224;-69
2022/03/16 06:10:32;;;;;;;7.40;1.17;;;22.60;99.90;;;;;;4916694;29;20200;-70
2022/03/16 06:13:02;;;;;;;5.60;1.20;;;22.80;99.90;;;;;;4916180;29;20669;-69
2022/03/16 06:15:32;;;;;;;5.30;1.50;;;22.70;99.90;;;;;;4916409;29;20212;-70
2022/03/16 06:18:00;;;;;;;6.93;1.70;;;22.70;99.90;;;;;;4916386;29;20216;-68
2022/03/16 06:20:28;;;;;;;9.10;1.50;;;22.60;99.90;;;;;;4916295;29;20204;-69
2022/03/16 06:22:56;;;;;;;9.63;1.93;;;22.70;99.90;;;;;;4916231;29;20241;-70
2022/03/16 06:25:27;;;;;;;3.23;1.40;;;22.70;99.90;;;;;;4913948;29;20185;-70
2022/03/16 06:27:55;;;;;;;7.70;1.43;;;22.80;99.90;;;;;;4916238;29;20192;-68
2022/03/16 06:30:22;;;;;;;8.80;1.50;;;22.80;99.90;;;;;;4913145;29;20643;-70
2022/03/16 06:32:50;;;;;;;5.73;1.60;;;22.80;99.90;;;;;;4915544;29;20287;-71
2022/03/16 06:35:18;;;;;;;8.33;1.60;;;22.80;99.90;;;;;;4915977;29;20266;-70
2022/03/16 06:37:46;;;;;;;5.03;1.60;;;22.80;99.90;;;;;;4916053;29;20192;-69
2022/03/16 06:40:15;;;;;;;6.13;1.47;;;23.00;99.90;;;;;;4915958;29;20571;-71
2022/03/16 06:42:56;;;;;;;7.90;1.40;;;23.00;99.90;;;;;;4913006;29;20187;-71
2022/03/16 06:45:26;;;;;;;9.70;1.50;;;23.10;99.90;;;;;;4913979;29;20813;-68
2022/03/16 06:47:59;;;;;;;8.23;1.50;;;23.10;99.90;;;;;;4915306;29;20178;-68
2022/03/16 06:50:28;;;;;;;7.43;1.67;;;23.10;99.90;;;;;;4913634;29;20189;-69
2022/03/16 06:52:56;;;;;;;5.07;1.80;;;23.10;99.90;;;;;;4915601;29;20237;-69
2022/03/16 06:55:26;;;;;;;9.90;1.40;;;23.10;99.90;;;;;;4913442;29;20248;-70
2022/03/16 06:57:54;;;;;;;8.63;1.40;;;23.00;99.90;;;;;;4915227;29;20189;-70
2022/03/16 07:00:22;;;;;;;10.90;1.63;;;22.90;99.90;;;;;;4915549;29;20189;-70
2022/03/16 07:03:01;;;;;;;8.53;1.80;;;23.00;99.90;;;;;;4915680;29;20232;-69
2022/03/16 07:05:31;;;;;;;7.97;1.73;;;22.90;99.90;;;;;;4915566;29;20315;-68
2022/03/16 07:08:02;;;;;;;7.53;1.53;;;22.90;99.90;;;;;;4913235;29;20218;-67
2022/03/16 07:10:31;;;;;;;6.90;1.70;;;22.80;99.90;;;;;;4915539;29;20193;-67
2022/03/16 07:12:59;;;;;;;6.20;1.93;;;22.80;99.90;;;;;;4912962;29;20253;-67
2022/03/16 07:15:27;;;;;;;8.73;2.27;;;22.70;99.90;;;;;;4915499;29;20283;-65
2022/03/16 07:17:55;;;;;;;8.63;1.57;;;22.70;99.90;;;;;;4915448;29;20661;-67
2022/03/16 07:20:23;;;;;;;6.50;1.47;;;22.60;99.90;;;;;;4915639;29;20708;-70
2022/03/16 07:23:10;;;;;;;8.10;1.57;;;22.70;99.90;;;;;;4915157;29;20637;-69
2022/03/16 07:25:43;;;;;;;8.43;1.90;;;22.70;99.90;;;;;;4915812;29;20276;-70
2022/03/16 07:28:12;;;;;;;9.10;1.43;;;22.70;99.90;;;;;;4915707;29;20291;-68
2022/03/16 07:30:40;;;;;;;11.80;1.60;;;22.70;99.90;;;;;;4915846;29;20276;-69
2022/03/16 07:33:09;;;;;;;7.90;2.00;;;22.80;99.90;;;;;;4914865;29;20272;-69
2022/03/16 07:35:38;;;;;;;12.83;1.87;;;22.80;99.90;;;;;;4915690;29;20656;-69
2022/03/16 07:38:06;;;;;;;9.40;1.57;;;22.80;99.90;;;;;;4915520;29;20213;-69
2022/03/16 07:40:35;;;;;;;12.20;1.90;;;22.80;99.90;;;;;;4915541;29;20723;-70
2022/03/16 07:43:05;;;;;;;13.30;1.83;;;22.70;99.90;;;;;;4915250;29;20279;-70
2022/03/16 07:45:32;;;;;;;17.17;2.17;;;22.70;99.90;;;;;;4915642;29;20191;-69
2022/03/16 07:48:00;;;;;;;10.97;2.33;;;22.70;99.90;;;;;;4914276;29;20224;-69
2022/03/16 07:50:28;;;;;;;14.17;2.00;;;22.70;99.90;;;;;;4915907;29;20193;-70
2022/03/16 07:52:56;;;;;;;12.33;2.40;;;22.70;99.90;;;;;;4915558;29;20201;-70
2022/03/16 07:55:24;;;;;;;14.10;2.67;;;22.60;99.90;;;;;;4923338;29;20208;-71
2022/03/16 07:57:54;;;;;;;13.80;2.30;;;22.60;99.90;;;;;;4927847;29;20188;-68
2022/03/16 08:00:22;;;;;;;15.43;4.40;;;22.50;99.90;;;;;;4914255;29;20189;-72
2022/03/16 08:02:52;;;;;;;13.93;2.50;;;22.50;99.90;;;;;;4913000;29;20198;-72
2022/03/16 08:05:24;;;;;;;13.43;2.80;;;22.40;99.90;;;;;;4903078;29;20182;-72
2022/03/16 08:07:51;;;;;;;19.20;3.90;;;22.40;99.90;;;;;;4929888;29;20727;-69
2022/03/16 08:10:20;;;;;;;12.03;2.33;;;22.30;99.90;;;;;;4906014;29;20216;-69
2022/03/16 08:12:48;;;;;;;15.47;3.93;;;22.30;99.90;;;;;;4900386;29;20188;-69
2022/03/16 08:15:16;;;;;;;12.83;2.00;;;22.20;99.90;;;;;;4915982;29;20214;-71
2022/03/16 08:17:43;;;;;;;13.83;2.20;;;22.10;99.90;;;;;;4901635;29;20238;-71
2022/03/16 08:20:12;;;;;;;14.40;2.57;;;22.10;99.90;;;;;;4918012;29;20196;-71
2022/03/16 08:22:39;;;;;;;16.73;2.70;;;22.10;99.90;;;;;;4920030;29;20192;-69
2022/03/16 08:25:10;;;;;;;10.47;1.80;;;22.00;99.90;;;;;;4920250;29;20262;-70
2022/03/16 08:27:39;;;;;;;12.43;2.17;;;21.90;99.90;;;;;;4919840;29;20550;-70
2022/03/16 08:30:11;;;;;;;9.40;2.00;;;21.90;99.90;;;;;;4919166;29;20665;-70
2022/03/16 08:32:40;;;;;;;10.23;2.20;;;21.90;99.90;;;;;;4919920;29;20657;-71
2022/03/16 08:35:09;;;;;;;10.90;2.13;;;21.90;99.90;;;;;;4920162;29;20182;-69
2022/03/16 08:37:37;;;;;;;9.30;2.23;;;21.90;99.90;;;;;;4920317;29;20617;-71
2022/03/16 08:40:07;;;;;;;6.00;2.00;;;21.90;99.90;;;;;;4919447;29;20600;-70
2022/03/16 08:42:36;;;;;;;12.83;2.40;;;21.80;99.90;;;;;;4918747;29;20236;-71
2022/03/16 08:45:03;;;;;;;11.87;2.17;;;21.80;99.90;;;;;;4919699;29;20212;-72
2022/03/16 08:47:31;;;;;;;13.00;2.00;;;21.80;99.90;;;;;;4919559;29;20185;-71
2022/03/16 08:49:58;;;;;;;15.07;2.70;;;21.70;99.90;;;;;;4919615;29;20251;-71
2022/03/16 08:52:25;;;;;;;11.83;2.37;;;21.60;99.90;;;;;;4919680;29;20183;-71
2022/03/16 08:54:53;;;;;;;9.37;2.13;;;21.60;99.90;;;;;;4918478;29;20200;-70
2022/03/16 08:57:23;;;;;;;10.03;2.80;;;21.60;99.90;;;;;;4919584;29;20193;-70
2022/03/16 08:59:51;;;;;;;14.27;2.83;;;21.60;99.90;;;;;;4917937;29;20326;-71
2022/03/16 09:02:18;;;;;;;8.60;2.00;;;21.50;99.90;;;;;;4919826;29;20237;-71
2022/03/16 09:04:46;;;;;;;15.43;2.30;;;21.50;99.90;;;;;;4919559;29;20587;-68
2022/03/16 09:07:13;;;;;;;13.30;2.33;;;21.40;99.90;;;;;;4919781;29;20268;-70
2022/03/16 09:09:42;;;;;;;11.00;2.50;;;21.40;99.90;;;;;;4919560;29;20252;-70
2022/03/16 09:12:11;;;;;;;13.63;2.60;;;21.40;99.90;;;;;;4918363;29;20185;-69
2022/03/16 09:14:39;;;;;;;13.13;2.20;;;21.30;99.90;;;;;;4919392;29;20192;-71
2022/03/16 09:17:10;;;;;;;12.67;2.10;;;21.30;99.90;;;;;;4917279;29;20612;-70
2022/03/16 09:19:37;;;;;;;13.80;2.50;;;21.20;99.90;;;;;;4919128;29;20173;-70
2022/03/16 09:22:05;;;;;;;11.47;2.50;;;21.20;99.90;;;;;;4919134;29;20686;-70
2022/03/16 09:24:32;;;;;;;12.33;2.50;;;21.10;99.90;;;;;;4919108;29;20662;-72
2022/03/16 09:27:00;;;;;;;9.83;2.17;;;21.00;99.90;;;;;;4919261;29;20184;-70
2022/03/16 09:29:30;;;;;;;10.07;2.13;;;21.00;99.90;;;;;;4919058;29;20209;-70
2022/03/16 09:31:58;;;;;;;11.67;2.43;;;20.90;99.90;;;;;;4919134;29;20183;-69
2022/03/16 09:34:25;;;;;;;12.33;2.13;;;20.90;99.90;;;;;;4918984;29;20181;-69
2022/03/16 09:36:52;;;;;;;10.33;2.07;;;20.80;99.90;;;;;;4919170;29;20178;-69
2022/03/16 09:39:20;;;;;;;14.50;2.03;;;20.80;99.90;;;;;;4918939;29;20174;-71
2022/03/16 09:41:47;;;;;;;11.60;2.37;;;20.80;99.90;;;;;;4918490;29;20261;-69
2022/03/16 09:44:15;;;;;;;11.40;2.20;;;20.70;99.90;;;;;;4918401;29;20199;-70
2022/03/16 09:46:44;;;;;;;11.03;2.23;;;20.70;99.90;;;;;;4918331;29;20655;-70
2022/03/16 09:49:15;;;;;;;14.17;2.20;;;20.70;99.90;;;;;;4914675;29;20210;-70
2022/03/16 09:51:42;;;;;;;9.70;2.10;;;20.60;99.90;;;;;;4918445;29;20185;-71
2022/03/16 09:54:10;;;;;;;12.30;2.10;;;20.60;99.90;;;;;;4915666;29;20189;-72
2022/03/16 09:56:38;;;;;;;11.07;2.17;;;20.50;99.90;;;;;;4918051;29;20200;-69
2022/03/16 09:59:06;;;;;;;9.83;2.00;;;20.50;99.90;;;;;;4918407;29;20189;-70
2022/03/16 10:01:35;;;;;;;11.70;2.40;;;20.40;99.90;;;;;;4917005;29;20225;-73
2022/03/16 10:04:06;;;;;;;10.13;2.43;;;20.40;99.90;;;;;;4918439;29;20232;-71
2022/03/16 10:06:37;;;;;;;12.37;2.30;;;20.40;99.90;;;;;;4918424;29;20177;-71
2022/03/16 10:15:13;;;;;;;13.57;2.10;;;20.20;99.90;;;;;;4923391;29;20188;-69
2022/03/16 10:17:43;;;;;;;8.00;2.03;;;20.10;99.90;;;;;;4932579;29;20179;-70
2022/03/16 10:20:32;;;;;;;14.00;2.73;;;20.10;99.90;;;;;;4930324;29;20229;-71
2022/03/16 10:23:10;;;;;;;9.10;1.80;;;20.10;99.90;;;;;;4924697;29;20224;-71
2022/03/16 10:25:46;;;;;;;11.73;2.30;;;20.10;99.90;;;;;;4923456;29;20190;-70
2022/03/16 10:28:23;;;;;;;11.80;2.20;;;20.10;99.90;;;;;;4922336;29;20705;-69
2022/03/16 10:30:52;;;;;;;9.80;2.70;;;20.10;99.90;;;;;;4922642;29;20177;-71
2022/03/16 10:33:21;;;;;;;6.30;1.97;;;20.10;99.90;;;;;;4920353;29;20201;-70
2022/03/16 10:36:03;;;;;;;11.80;2.23;;;20.10;99.90;;;;;;4919270;29;20196;-70
2022/03/16 10:38:37;;;;;;;14.70;2.03;;;20.10;99.90;;;;;;4919257;29;20178;-71
2022/03/16 10:47:18;;;;;;;17.43;2.60;;;20.00;99.90;;;;;;4917957;29;20194;-72
2022/03/16 10:49:48;;;;;;;12.93;2.40;;;20.00;99.90;;;;;;4917607;29;20240;-71
2022/03/16 10:52:20;;;;;;;11.90;2.63;;;20.00;99.90;;;;;;4917450;29;20277;-70
2022/03/16 10:54:51;;;;;;;8.77;2.20;;;19.90;99.90;;;;;;4917692;29;20182;-70
2022/03/16 10:57:19;;;;;;;6.57;2.10;;;19.80;99.90;;;;;;4917990;29;20196;-71
2022/03/16 10:59:49;;;;;;;10.97;2.67;;;19.80;99.90;;;;;;4917562;29;20188;-69
2022/03/16 11:02:19;;;;;;;9.97;1.77;;;19.80;99.90;;;;;;4917457;29;20605;-70
2022/03/16 11:04:50;;;;;;;15.30;2.50;;;19.70;99.90;;;;;;4917403;29;20189;-70
2022/03/16 11:07:19;;;;;;;11.20;2.10;;;19.60;99.90;;;;;;4917599;29;20662;-70
2022/03/16 11:09:48;;;;;;;5.03;1.83;;;19.50;99.90;;;;;;4917293;29;20686;-70
2022/03/16 11:15:05;;;;;;;8.07;1.87;;;19.50;99.90;;;;;;4917278;29;20203;-70
2022/03/16 11:17:36;;;;;;;12.77;2.37;;;19.50;99.90;;;;;;4917488;29;20190;-70
2022/03/16 11:20:08;;;;;;;16.07;2.10;;;19.60;99.90;;;;;;4917535;29;20644;-70
2022/03/16 11:26:03;;;;;;;6.33;1.70;;;19.50;99.90;;;;;;4898827;29;20663;-70
2022/03/16 11:29:05;;;;;;;11.10;2.77;;;19.40;99.90;;;;;;4914299;29;20225;-70
2022/03/16 11:31:34;;;;;;;8.00;2.20;;;19.40;99.90;;;;;;4917288;29;20180;-69
2022/03/16 11:34:08;;;;;;;10.60;2.40;;;19.30;99.90;;;;;;4917432;29;20322;-70
2022/03/16 11:36:40;;;;;;;9.97;2.43;;;19.30;99.90;;;;;;4923800;29;20212;-70
2022/03/16 11:39:22;;;;;;;12.27;2.70;;;19.30;99.90;;;;;;4923997;29;20169;-69
2022/03/16 11:41:55;;;;;;;7.13;2.13;;;19.20;99.90;;;;;;4923274;29;20606;-73
2022/03/16 11:44:29;;;;;;;9.63;2.20;;;19.20;99.90;;;;;;4923213;29;20222;-70
2022/03/16 11:47:16;;;;;;;8.27;2.20;;;19.10;99.90;;;;;;4923538;29;20697;-70
2022/03/16 11:50:11;;;;;;;10.00;3.07;;;19.20;99.90;;;;;;4923267;29;20659;-70
2022/03/16 11:53:14;;;;;;;9.77;2.50;;;19.20;99.90;;;;;;4904401;29;20210;-69
2022/03/16 11:55:48;;;;;;;8.80;2.43;;;19.30;99.90;;;;;;4884116;29;20203;-71
2022/03/16 11:58:25;;;;;;;8.53;2.20;;;19.20;99.90;;;;;;4904523;29;20179;-69
2022/03/16 12:01:28;;;;;;;6.83;2.20;;;19.20;99.90;;;;;;4904424;29;20225;-70
2022/03/16 12:04:22;;;;;;;7.57;2.30;;;19.20;99.90;;;;;;4910642;29;20286;-70
2022/03/16 12:07:04;;;;;;;9.90;2.63;;;19.20;99.90;;;;;;4923197;29;20610;-70
2022/03/16 12:09:37;;;;;;;9.03;2.20;;;19.10;99.90;;;;;;4922744;29;20225;-70
2022/03/16 12:15:17;;;;;;;11.73;2.40;;;19.00;99.90;;;;;;4922417;29;20196;-72
2022/03/16 12:17:54;;;;;;;9.90;2.50;;;19.10;99.90;;;;;;4924078;29;20175;-71
2022/03/16 12:20:31;;;;;;;6.60;1.90;;;19.00;99.90;;;;;;4924071;29;20205;-71
2022/03/16 12:23:10;;;;;;;8.23;2.13;;;19.00;99.90;;;;;;4922547;29;20661;-70
2022/03/16 12:25:50;;;;;;;7.23;1.73;;;18.90;99.90;;;;;;4923108;29;20669;-70
2022/03/16 12:31:20;;;;;;;7.07;2.40;;;18.90;99.90;;;;;;4922465;29;20192;-70
2022/03/16 12:33:55;;;;;;;10.00;2.87;;;18.90;99.90;;;;;;4922431;29;20255;-70
2022/03/16 12:36:33;;;;;;;9.27;1.63;;;18.80;99.90;;;;;;4922723;29;20652;-70
2022/03/16 12:39:13;;;;;;;7.37;2.20;;;18.90;99.90;;;;;;4922875;29;20224;-70
2022/03/16 12:44:25;;;;;;;5.10;1.97;;;18.80;99.90;;;;;;4922676;29;20260;-70
2022/03/16 12:47:19;;;;;;;6.20;2.30;;;18.70;99.90;;;;;;4919469;29;20191;-70
2022/03/16 12:49:48;;;;;;;10.10;2.30;;;18.70;99.90;;;;;;4920331;29;20714;-70
2022/03/16 12:52:15;;;;;;;12.57;2.50;;;18.70;99.90;;;;;;4919697;29;20191;-70
2022/03/16 12:54:42;;;;;;;8.93;2.13;;;18.70;99.90;;;;;;4919454;29;20190;-69
2022/03/16 12:57:15;;;;;;;11.80;2.77;;;18.70;99.90;;;;;;4919773;29;20717;-70
2022/03/16 12:59:49;;;;;;;15.00;2.90;;;18.60;99.90;;;;;;4918619;29;20307;-69
2022/03/16 13:02:30;;;;;;;8.20;2.10;;;18.60;99.90;;;;;;4913107;29;20602;-69
2022/03/16 13:04:58;;;;;;;11.33;2.37;;;18.60;99.90;;;;;;4918822;29;20228;-70
2022/03/16 13:07:27;;;;;;;5.23;2.10;;;18.60;99.90;;;;;;4902921;29;20193;-69
2022/03/16 13:09:54;;;;;;;11.13;2.30;;;18.60;99.90;;;;;;4919466;29;20229;-70
2022/03/16 13:12:26;;;;;;;6.83;1.80;;;18.60;99.90;;;;;;4919658;29;20184;-71
2022/03/16 13:14:57;;;;;;;5.80;1.73;;;18.50;99.90;;;;;;4919150;29;20181;-70
2022/03/16 13:17:34;;;;;;;10.27;2.23;;;18.50;99.90;;;;;;4919369;29;20646;-69
2022/03/16 13:20:03;;;;;;;7.83;2.10;;;18.50;99.90;;;;;;4919411;29;20272;-69
2022/03/16 13:22:30;;;;;;;13.20;2.70;;;18.50;99.90;;;;;;4919084;29;20228;-71